Archival Weather

Yakutsk

Yakutsk, Russia (UEEE)

Report from: Monday, February 6, 2023 5:30 AM JST
Current time: Monday, June 17, 2024 8:37 PM JST

Current weather – Weather history – Daily summaries
Weather forecast

Present weatherMist
Temperature-42.0°C (-43.6°F)
Dew point-46.0°C (-50.8°F)
Winds 1.9 kts (1 m/s, 2.2 mph) West-Northwest (300°)
Visibility4921.3 ft. (1.5 km)
Altimeter30.21 in.Hg (1023 mB)
Precip. events QF 7:38 AM
Relative humidity65 %
Density altitude-8,054 ft. (-2,455 m)
Remarks No significant changes expected in the next two hours
Flight conditions Low Instrument Meteorological Conditions
Raw dataUEEE 052030Z 30001MPS 1500 R23L/P2000U BR NSC M42/M46 Q1023 R23L/490150 NOSIG RMK QFE758
An error has occurred. This application may no longer respond until reloaded. Reload 🗙